Time;durP1;ratioP1;P1;durP2;ratioP2;P2;SDS_P1;SDS_P2;PMS_P1;PMS_P2;Temp;Humidity;BMP_temperature;BMP_pressure;BME280_temperature;BME280_humidity;BME280_pressure;Samples;Min_cycle;Max_cycle;Signal;HPM_P1;HPM_P2
2022/09/22 00:03:37;;;;;;;3.90;1.60;;;;;;;6.40;100.00;99259.84;15284093;19;20022;-60
2022/09/22 00:09:03;;;;;;;6.32;1.50;;;;;;;6.36;100.00;99250.31;15280866;19;20033;-60
2022/09/22 00:14:38;;;;;;;2.33;1.38;;;;;;;6.35;100.00;99253.97;15279571;19;20102;-60
2022/09/22 00:20:03;;;;;;;4.82;1.40;;;;;;;6.31;100.00;99252.47;15276090;19;20022;-60
2022/09/22 00:25:27;;;;;;;3.03;1.30;;;;;;;6.30;100.00;99254.31;15285138;19;20014;-59
2022/09/22 00:30:55;;;;;;;3.17;1.33;;;;;;;6.26;100.00;99255.50;15284846;19;20594;-60
2022/09/22 00:36:20;;;;;;;4.25;1.30;;;;;;;6.23;100.00;99255.75;15274515;19;20014;-60
2022/09/22 00:41:47;;;;;;;4.00;1.70;;;;;;;6.19;100.00;99253.38;15282952;19;20457;-60
2022/09/22 00:47:23;;;;;;;3.70;1.35;;;;;;;6.14;100.00;99251.91;15273774;19;20018;-60
2022/09/22 00:52:52;;;;;;;4.00;1.50;;;;;;;6.11;100.00;99251.28;15283369;19;20725;-60
2022/09/22 00:58:22;;;;;;;4.10;1.70;;;;;;;6.03;100.00;99251.84;15269196;19;20014;-60
2022/09/22 01:03:51;;;;;;;6.70;1.40;;;;;;;5.99;100.00;99248.53;15278556;19;20090;-59
2022/09/22 01:09:17;;;;;;;4.38;1.60;;;;;;;5.94;100.00;99244.47;15274580;19;20018;-61
2022/09/22 01:15:12;;;;;;;3.22;1.50;;;;;;;5.90;100.00;99242.97;15276448;19;20018;-59
2022/09/22 01:21:01;;;;;;;2.10;1.20;;;;;;;5.85;100.00;99240.63;15272107;19;20015;-59
2022/09/22 01:27:00;;;;;;;1.40;1.20;;;;;;;5.79;100.00;99239.25;15278019;19;20018;-60
2022/09/22 01:32:33;;;;;;;3.85;1.50;;;;;;;5.73;100.00;99230.81;15271882;19;20025;-60
2022/09/22 01:38:06;;;;;;;3.45;1.60;;;;;;;5.67;100.00;99226.75;15266969;19;20011;-61
2022/09/22 01:43:38;;;;;;;4.53;1.33;;;;;;;5.62;100.00;99220.88;15279728;19;20015;-60
2022/09/22 01:49:08;;;;;;;2.53;1.42;;;;;;;5.55;100.00;99217.78;15271484;19;20022;-61
2022/09/22 01:54:40;;;;;;;2.78;1.40;;;;;;;5.45;100.00;99209.59;15273336;19;20042;-59
2022/09/22 02:00:10;;;;;;;3.10;1.45;;;;;;;5.44;100.00;99210.56;15270220;19;20006;-60
2022/09/22 02:05:43;;;;;;;3.42;1.35;;;;;;;5.41;100.00;99213.44;15270322;19;20022;-60
2022/09/22 02:11:15;;;;;;;2.38;1.30;;;;;;;5.36;100.00;99210.22;15273987;19;20463;-60
2022/09/22 02:16:40;;;;;;;2.63;1.27;;;;;;;5.33;100.00;99210.47;15266945;19;20019;-60
2022/09/22 02:22:08;;;;;;;3.33;1.48;;;;;;;5.28;100.00;99212.59;15276437;19;20011;-60
2022/09/22 02:27:35;;;;;;;3.53;1.60;;;;;;;5.20;100.00;99208.66;15270064;19;20044;-60
2022/09/22 02:33:03;;;;;;;3.70;1.50;;;;;;;5.14;100.00;99202.88;15280289;19;20492;-60
2022/09/22 02:38:37;;;;;;;4.30;1.30;;;;;;;5.10;100.00;99204.91;15271429;19;20015;-60
2022/09/22 02:44:09;;;;;;;2.15;1.20;;;;;;;5.06;100.00;99214.09;15288088;19;20017;-60
2022/09/22 02:49:35;;;;;;;2.07;1.50;;;;;;;5.02;100.00;99204.56;15291401;19;20053;-60
2022/09/22 02:55:02;;;;;;;2.65;1.30;;;;;;;4.98;100.00;99200.44;15289407;19;20357;-60
2022/09/22 03:00:27;;;;;;;2.83;1.50;;;;;;;4.97;100.00;99209.41;15283040;19;20481;-60
2022/09/22 03:05:51;;;;;;;3.95;1.60;;;;;;;4.92;100.00;99199.88;15285250;19;20023;-60
2022/09/22 03:11:18;;;;;;;3.13;1.70;;;;;;;4.91;100.00;99200.84;15285377;19;20027;-56
2022/09/22 03:16:43;;;;;;;4.65;1.60;;;;;;;4.82;100.00;99198.81;15278320;19;20134;-54
2022/09/22 03:22:08;;;;;;;8.13;1.90;;;;;;;4.77;100.00;99196.47;15291115;19;20014;-53
2022/09/22 03:27:35;;;;;;;3.35;1.50;;;;;;;4.71;100.00;99193.34;15282414;19;20014;-53
2022/09/22 03:33:01;;;;;;;2.25;1.50;;;;;;;4.66;100.00;99196.34;15288871;19;20488;-55
2022/09/22 03:38:25;;;;;;;16.05;1.70;;;;;;;4.65;100.00;99193.75;15279915;19;20014;-53
2022/09/22 03:43:53;;;;;;;2.85;1.98;;;;;;;4.61;100.00;99202.00;15286312;19;20021;-55
2022/09/22 03:49:17;;;;;;;1.63;1.50;;;;;;;4.57;100.00;99200.47;15284292;19;20024;-55
2022/09/22 03:54:42;;;;;;;5.30;1.60;;;;;;;4.55;100.00;99207.72;15281972;19;20014;-54
2022/09/22 04:00:10;;;;;;;1.80;1.50;;;;;;;4.52;100.00;99196.41;15266866;19;20026;-54
2022/09/22 04:05:36;;;;;;;2.47;1.50;;;;;;;4.48;100.00;99195.78;15268819;19;20015;-53
2022/09/22 04:11:02;;;;;;;2.47;1.60;;;;;;;4.47;100.00;99194.06;15278676;19;20014;-55
2022/09/22 04:16:30;;;;;;;2.20;1.90;;;;;;;4.42;100.00;99190.81;15278077;19;20011;-56
2022/09/22 04:21:55;;;;;;;1.95;1.70;;;;;;;4.40;100.00;99196.28;15278993;19;20010;-52
2022/09/22 04:27:26;;;;;;;3.58;1.75;;;;;;;4.43;100.00;99193.41;15275515;19;20481;-52
2022/09/22 04:32:53;;;;;;;2.63;1.70;;;;;;;4.45;100.00;99190.63;15280715;19;20603;-53
2022/09/22 04:38:19;;;;;;;3.58;1.75;;;;;;;4.48;100.00;99195.78;15276648;19;20015;-52
2022/09/22 04:43:44;;;;;;;1.77;1.67;;;;;;;4.50;100.00;99193.00;15271143;19;20006;-56
2022/09/22 04:49:11;;;;;;;2.25;1.80;;;;;;;4.52;100.00;99199.94;15279412;19;20460;-55
2022/09/22 04:54:36;;;;;;;2.22;1.77;;;;;;;4.55;100.00;99201.56;15271214;19;20037;-47
2022/09/22 05:00:00;;;;;;;3.28;1.50;;;;;;;4.55;100.00;99201.56;15274511;19;20018;-46
2022/09/22 05:05:28;;;;;;;2.83;1.60;;;;;;;4.57;100.00;99205.81;15276195;19;20024;-48
2022/09/22 05:10:55;;;;;;;2.83;1.65;;;;;;;4.58;100.00;99201.34;15277673;19;20023;-47
2022/09/22 05:16:20;;;;;;;1.63;1.50;;;;;;;4.60;100.00;99208.28;15271335;19;20014;-47
2022/09/22 05:21:47;;;;;;;1.85;1.48;;;;;;;4.58;100.00;99206.69;15271988;19;20026;-48
2022/09/22 05:27:12;;;;;;;2.50;1.52;;;;;;;4.57;100.00;99205.81;15266116;19;20014;-56
2022/09/22 05:32:36;;;;;;;3.05;1.50;;;;;;;4.56;100.00;99206.78;15275527;19;20006;-53
2022/09/22 05:38:04;;;;;;;2.03;1.52;;;;;;;4.56;100.00;99209.44;15266703;19;20014;-54
2022/09/22 05:43:59;;;;;;;2.38;1.40;;;;;;;4.55;100.00;99212.22;15278598;19;20014;-57
2022/09/22 05:49:24;;;;;;;1.95;1.40;;;;;;;4.55;100.00;99206.88;15269019;19;20015;-54
2022/09/22 05:54:51;;;;;;;2.53;1.50;;;;;;;4.55;100.00;99212.22;15277836;19;20468;-56
2022/09/22 06:00:16;;;;;;;2.70;1.42;;;;;;;4.58;100.00;99209.34;15270965;19;20037;-50
2022/09/22 06:05:42;;;;;;;2.60;1.60;;;;;;;4.59;100.00;99211.03;15276830;19;20018;-51
2022/09/22 06:11:10;;;;;;;1.40;1.30;;;;;;;4.63;100.00;99205.41;15271206;19;20018;-54
2022/09/22 06:16:35;;;;;;;2.38;1.42;;;;;;;4.68;100.00;99206.91;15271334;19;20037;-53
2022/09/22 06:22:01;;;;;;;4.22;1.67;;;;;;;4.73;100.00;99210.97;15265501;19;20018;-51
2022/09/22 06:27:29;;;;;;;5.38;1.60;;;;;;;4.81;100.00;99213.13;15272714;19;20050;-52
2022/09/22 06:32:56;;;;;;;3.10;1.65;;;;;;;4.90;100.00;99228.50;15276937;19;20017;-50
2022/09/22 06:38:22;;;;;;;3.03;1.75;;;;;;;4.98;100.00;99230.66;15266767;19;20473;-51
2022/09/22 06:43:55;;;;;;;5.15;1.83;;;;;;;5.11;100.00;99232.47;15274960;19;20019;-52
2022/09/22 06:49:19;;;;;;;;;;;;;;;5.32;100.00;99238.16;15268639;19;20014;-50
2022/09/22 06:54:45;;;;;;;3.35;1.92;;;;;;;5.38;100.00;99243.03;15269346;19;19915;-51
2022/09/22 07:00:16;;;;;;;2.40;1.70;;;;;;;5.50;100.00;99238.66;15268142;19;20007;-51
2022/09/22 07:05:41;;;;;;;4.18;1.95;;;;;;;5.60;100.00;99231.69;15270409;19;20469;-45
2022/09/22 07:11:17;;;;;;;3.15;1.70;;;;;;;5.76;100.00;99236.78;15267067;19;20031;-45
2022/09/22 07:17:17;;;;;;;4.57;2.70;;;;;;;5.94;100.00;99244.47;15268735;19;20018;-46
2022/09/22 07:22:44;;;;;;;3.13;1.85;;;;;;;6.03;100.00;99246.50;15272552;19;20015;-46
2022/09/22 07:28:12;;;;;;;1.52;1.42;;;;;;;6.16;100.00;99239.28;15275919;19;20037;-45
2022/09/22 07:33:36;;;;;;;3.67;1.30;;;;;;;6.29;100.00;99239.22;15285226;19;20010;-53
2022/09/22 07:39:09;;;;;;;3.63;1.70;;;;;;;6.48;100.00;99237.84;15284388;19;20014;-53
2022/09/22 07:50:16;;;;;;;2.25;1.50;;;;;;;6.87;100.00;99243.81;15283246;19;20024;-52
2022/09/22 07:55:49;;;;;;;3.08;1.50;;;;;;;7.02;100.00;99228.41;15284679;19;20014;-53
2022/09/22 08:01:16;;;;;;;4.78;2.05;;;;;;;7.25;100.00;99225.75;15279812;19;20023;-56
2022/09/22 08:06:42;;;;;;;4.25;2.20;;;;;;;7.42;100.00;99226.25;15284291;19;20025;-54
2022/09/22 08:12:10;;;;;;;3.58;1.70;;;;;;;7.65;100.00;99222.59;15287190;19;20026;-52
2022/09/22 08:17:34;;;;;;;2.47;1.50;;;;;;;7.90;100.00;99226.00;15287822;19;20587;-56
2022/09/22 08:23:04;;;;;;;1.73;1.27;;;;;;;8.07;100.00;99215.69;15286084;19;20014;-51
2022/09/22 08:28:31;;;;;;;3.60;1.40;;;;;;;8.27;100.00;99206.88;15275529;19;20011;-52
2022/09/22 08:33:57;;;;;;;4.10;1.90;;;;;;;8.53;100.00;99206.53;15281746;19;20015;-55
2022/09/22 08:39:24;;;;;;;1.58;1.20;;;;;;;8.69;100.00;99198.06;15280363;19;20022;-55
2022/09/22 08:44:59;;;;;;;2.10;1.50;;;;;;;8.90;100.00;99187.31;15279286;19;20023;-55
2022/09/22 08:56:35;;;;;;;2.35;1.60;;;;;;;9.31;100.00;99183.84;15278374;19;20014;-46
2022/09/22 09:02:13;;;;;;;4.22;1.60;;;;;;;9.60;100.00;99192.03;15268354;19;20015;-46
2022/09/22 09:07:51;;;;;;;1.75;1.50;;;;;;;9.80;100.00;99184.91;15272873;19;20010;-49
2022/09/22 09:13:43;;;;;;;3.85;1.67;;;;;;;10.05;100.00;99179.13;15279882;19;20014;-46
2022/09/22 09:19:17;;;;;;;2.47;1.58;;;;;;;10.39;100.00;99178.75;15271080;19;20021;-45
2022/09/22 09:24:46;;;;;;;2.72;1.50;;;;;;;10.61;100.00;99174.94;15272397;19;20513;-46
2022/09/22 09:30:36;;;;;;;2.65;1.30;;;;;;;10.89;100.00;99166.94;15270912;19;20017;-47
2022/09/22 09:36:04;;;;;;;3.15;1.60;;;;;;;11.13;100.00;99160.22;15269696;19;20096;-47
2022/09/22 09:41:32;;;;;;;2.28;1.35;;;;;;;11.38;100.00;99159.56;15273322;19;20037;-47
2022/09/22 09:47:10;;;;;;;2.80;1.30;;;;;;;11.67;100.00;99155.00;15277826;19;20338;-46
2022/09/22 09:52:39;;;;;;;4.15;1.30;;;;;;;11.93;100.00;99144.38;15271608;19;20018;-48
2022/09/22 10:00:29;;;;;;;2.50;1.10;;;;;;;12.25;100.00;99145.72;15272965;19;20018;-47
2022/09/22 10:03:57;;;;;;;2.25;1.45;;;;;;;12.59;100.00;99142.31;15276040;19;20014;-46
2022/09/22 10:09:35;;;;;;;1.48;1.00;;;;;;;12.73;100.00;99143.59;15274579;19;20313;-45
2022/09/22 10:15:08;;;;;;;1.50;0.80;;;;;;;12.81;100.00;99134.69;15273013;19;20018;-44
2022/09/22 10:20:36;;;;;;;1.10;0.60;;;;;;;12.87;100.00;99131.38;15265343;19;20010;-46
2022/09/22 10:26:25;;;;;;;1.02;0.55;;;;;;;12.91;100.00;99121.91;15267127;19;20089;-45
2022/09/22 10:32:13;;;;;;;0.57;0.40;;;;;;;13.08;100.00;99114.75;15268402;19;20028;-49
2022/09/22 10:37:39;;;;;;;1.70;0.70;;;;;;;13.33;100.00;99114.03;15268544;19;20015;-50
2022/09/22 10:43:13;;;;;;;2.05;0.68;;;;;;;13.47;100.00;99112.59;15272620;19;20044;-44
2022/09/22 10:48:47;;;;;;;1.65;0.82;;;;;;;13.58;100.00;99116.88;15268136;19;20035;-45
2022/09/22 10:54:43;;;;;;;1.00;0.60;;;;;;;13.49;100.00;99116.81;15274142;19;20357;-47
2022/09/22 11:00:27;;;;;;;0.70;0.60;;;;;;;13.60;100.00;99118.41;15270411;19;20542;-46
2022/09/22 11:18:01;;;;;;;2.38;0.60;;;;;;;13.62;100.00;99107.41;15290467;19;20015;-54
2022/09/22 13:00:04;;;;;;;0.70;0.30;;;;;;;14.91;100.00;99018.34;15294148;19;20015;-77
2022/09/22 13:05:43;;;;;;;1.58;0.50;;;;;;;15.11;100.00;99002.50;15285945;19;20347;-78
2022/09/22 13:11:10;;;;;;;0.60;0.30;;;;;;;15.58;100.00;98998.00;15284087;19;20020;-78
2022/09/22 13:16:38;;;;;;;0.82;0.30;;;;;;;16.07;100.00;98996.81;15286960;19;20359;-78
2022/09/22 13:22:03;;;;;;;1.58;0.40;;;;;;;16.43;100.00;98995.28;15283282;19;20014;-78
2022/09/22 13:27:28;;;;;;;1.88;0.20;;;;;;;16.86;100.00;99000.13;15289248;19;20025;-78
2022/09/22 13:32:59;;;;;;;0.73;0.30;;;;;;;16.69;77.16;98997.59;15287922;19;20399;-78
2022/09/22 13:38:49;;;;;;;0.50;0.30;;;;;;;17.20;79.54;98994.13;15282644;19;20021;-79
2022/09/22 13:44:20;;;;;;;0.80;0.30;;;;;;;17.29;74.45;98975.78;15320663;19;20015;-78
2022/09/22 13:49:48;;;;;;;0.93;0.30;;;;;;;17.41;76.63;98970.69;15327112;19;20018;-78
2022/09/22 13:55:27;;;;;;;0.52;0.10;;;;;;;17.72;58.67;98980.44;15282633;19;20085;-78
2022/09/22 14:00:56;;;;;;;0.20;0.20;;;;;;;17.97;59.92;98971.91;15286677;19;20038;-78
2022/09/22 14:06:39;;;;;;;0.35;0.22;;;;;;;17.89;59.08;98955.66;15293474;19;20479;-80
2022/09/22 14:12:05;;;;;;;0.10;0.10;;;;;;;18.50;65.73;98957.00;15282180;19;20368;-79
2022/09/22 14:17:32;;;;;;;0.95;0.50;;;;;;;18.75;75.55;98954.63;15289801;19;20011;-77
2022/09/22 14:22:59;;;;;;;0.50;0.40;;;;;;;18.92;76.60;98956.00;15272333;19;20006;-79
2022/09/22 14:28:27;;;;;;;1.98;0.50;;;;;;;18.97;70.73;98951.84;15284916;19;20046;-77
2022/09/22 14:33:51;;;;;;;0.60;0.50;;;;;;;19.29;71.52;98950.28;15282823;19;20028;-77
2022/09/22 14:39:22;;;;;;;1.00;0.40;;;;;;;19.63;66.57;98948.47;15295555;19;20014;-78
2022/09/22 14:44:52;;;;;;;1.38;0.50;;;;;;;19.92;69.94;98953.81;15291767;19;20025;-77
2022/09/22 14:50:19;;;;;;;0.73;0.45;;;;;;;20.08;69.57;98944.34;15298881;19;20280;-78
2022/09/22 14:55:48;;;;;;;1.30;0.50;;;;;;;20.21;71.84;98941.59;15298598;19;20025;-78
2022/09/22 15:07:03;;;;;;;2.63;0.40;;;;;;;20.46;70.08;98933.56;15303994;19;20014;-77
2022/09/22 15:12:42;;;;;;;0.80;0.35;;;;;;;20.28;64.72;98928.78;15296435;19;20037;-80
2022/09/22 15:18:15;;;;;;;1.90;0.50;;;;;;;19.85;70.48;98927.28;15344472;19;20031;-78
2022/09/22 15:23:51;;;;;;;3.17;0.70;;;;;;;19.21;77.17;98926.72;15315275;19;20018;-78
2022/09/22 15:29:19;;;;;;;2.45;0.50;;;;;;;18.68;83.65;98929.22;15268689;19;20098;-76
2022/09/22 15:34:44;;;;;;;1.13;0.52;;;;;;;18.40;83.10;98922.75;15297461;19;20012;-79
2022/09/22 15:40:15;;;;;;;1.75;0.50;;;;;;;18.58;87.65;98926.84;15301048;19;20025;-78
2022/09/22 15:45:49;;;;;;;1.53;0.60;;;;;;;18.68;79.90;98930.03;15289963;19;20491;-77
2022/09/22 15:51:18;;;;;;;2.38;0.70;;;;;;;18.90;84.88;98927.19;15296308;19;20031;-78
2022/09/22 15:56:44;;;;;;;1.60;0.60;;;;;;;19.11;82.53;98925.44;15294127;19;20010;-78
2022/09/22 16:02:20;;;;;;;1.15;0.45;;;;;;;19.20;79.22;98918.75;15284677;19;20482;-77
2022/09/22 16:07:52;;;;;;;0.30;0.30;;;;;;;19.18;78.16;98920.84;15294912;19;20017;-76
2022/09/22 16:13:18;;;;;;;0.55;0.40;;;;;;;19.17;77.03;98910.97;15292918;19;20025;-76
2022/09/22 16:18:46;;;;;;;0.43;0.40;;;;;;;19.06;72.88;98907.78;15284926;19;20019;-76
2022/09/22 16:24:14;;;;;;;1.40;0.50;;;;;;;18.96;82.46;98901.84;15281694;19;20479;-77
2022/09/22 16:29:39;;;;;;;0.82;0.30;;;;;;;18.75;76.01;98900.06;15285698;19;20022;-78
2022/09/22 16:35:08;;;;;;;1.13;0.90;;;;;;;18.56;75.89;98904.34;15284773;19;20078;-77
2022/09/22 16:40:33;;;;;;;0.28;0.20;;;;;;;18.30;77.76;98909.47;15281822;19;20019;-81
2022/09/22 16:51:39;;;;;;;1.05;0.40;;;;;;;17.34;80.91;98916.16;15292070;19;20516;-79
2022/09/22 16:57:25;;;;;;;0.40;0.30;;;;;;;16.86;83.91;98908.44;15293256;19;20506;-79
2022/09/22 17:02:56;;;;;;;1.02;0.40;;;;;;;16.33;93.51;98905.84;15287892;19;20031;-79
2022/09/22 17:14:12;;;;;;;0.77;0.47;;;;;;;15.04;100.00;98904.66;15300353;19;20015;-80
2022/09/22 17:19:36;;;;;;;0.90;0.47;;;;;;;14.52;100.00;98900.63;15298657;19;20426;-78
2022/09/22 17:25:01;;;;;;;0.30;0.30;;;;;;;14.09;100.00;98900.91;15300815;19;20033;-78
2022/09/22 17:30:29;;;;;;;0.82;0.50;;;;;;;13.86;100.00;98901.63;15292006;19;20013;-78
2022/09/22 17:35:58;;;;;;;0.95;0.57;;;;;;;13.43;100.00;98903.66;15292000;19;20467;-77
2022/09/22 17:41:22;;;;;;;1.75;0.70;;;;;;;12.95;100.00;98906.94;15288982;19;20002;-78
2022/09/22 17:58:08;;;;;;;1.17;0.85;;;;;;;12.15;100.00;98901.84;15296992;19;20038;-78
2022/09/22 18:03:45;;;;;;;2.20;0.50;;;;;;;11.98;100.00;98901.72;15292107;19;20467;-78
2022/09/22 18:09:10;;;;;;;2.00;0.70;;;;;;;11.68;100.00;98908.41;15278759;19;20011;-78
2022/09/22 18:14:39;;;;;;;0.63;0.55;;;;;;;11.55;100.00;98911.50;15271186;19;20006;-79
2022/09/22 18:20:11;;;;;;;1.00;0.63;;;;;;;11.42;100.00;98911.88;15270564;19;20509;-79
2022/09/22 18:25:35;;;;;;;0.68;0.60;;;;;;;11.15;100.00;98904.72;15266396;19;20012;-77
2022/09/22 18:31:00;;;;;;;0.68;0.65;;;;;;;10.98;100.00;98909.97;15280917;19;20485;-77
2022/09/22 18:36:27;;;;;;;1.10;0.68;;;;;;;10.90;100.00;98912.53;15278725;19;20022;-78
2022/09/22 18:41:53;;;;;;;1.80;0.73;;;;;;;10.83;100.00;98914.16;15274777;19;20094;-77
2022/09/22 18:47:22;;;;;;;0.82;0.70;;;;;;;10.71;100.00;98926.97;15275008;19;20015;-77
2022/09/22 18:52:53;;;;;;;1.52;0.85;;;;;;;10.53;100.00;98922.38;15269063;19;20022;-78
2022/09/22 18:58:16;;;;;;;1.30;0.85;;;;;;;10.38;100.00;98919.34;15277146;19;20014;-78
2022/09/22 19:03:48;;;;;;;0.90;0.90;;;;;;;10.24;100.00;98917.09;15268088;19;20014;-76
2022/09/22 19:09:16;;;;;;;1.27;0.90;;;;;;;10.12;100.00;98921.78;15278927;19;20025;-79
2022/09/22 19:14:41;;;;;;;1.70;1.00;;;;;;;10.01;100.00;98933.59;15289198;19;20104;-79
2022/09/22 19:20:06;;;;;;;1.75;1.00;;;;;;;9.96;100.00;98927.78;15287748;19;20034;-78
2022/09/22 19:25:34;;;;;;;1.77;0.93;;;;;;;9.91;100.00;98935.44;15286426;19;20015;-79
2022/09/22 19:30:58;;;;;;;1.60;0.82;;;;;;;9.79;100.00;98922.16;15304727;19;20014;-78
2022/09/22 19:36:24;;;;;;;1.60;0.80;;;;;;;9.71;100.00;98930.06;15300369;19;20046;-78
2022/09/22 19:41:52;;;;;;;2.80;0.60;;;;;;;9.59;100.00;98915.94;15303433;19;20014;-82
2022/09/22 19:47:18;;;;;;;3.22;0.88;;;;;;;9.54;100.00;98921.75;15091357;19;20010;-80
2022/09/22 19:52:43;;;;;;;1.50;1.00;;;;;;;9.45;100.00;98917.22;15310291;19;20746;-80
2022/09/22 19:58:11;;;;;;;0.70;0.70;;;;;;;9.36;100.00;98918.06;15306041;19;20011;-78
2022/09/22 20:09:40;;;;;;;1.42;0.95;;;;;;;9.23;100.00;98921.03;15341918;19;20572;-79
2022/09/22 20:15:08;;;;;;;1.20;0.80;;;;;;;9.13;100.00;98918.31;15296935;19;20014;-78
2022/09/22 20:20:36;;;;;;;1.63;0.80;;;;;;;9.08;100.00;98907.16;15290594;19;20018;-77
2022/09/22 20:26:02;;;;;;;1.33;0.90;;;;;;;9.04;100.00;98911.09;15291093;19;20022;-79
2022/09/22 20:31:29;;;;;;;1.20;0.80;;;;;;;8.98;100.00;98912.50;15287910;19;20075;-77
2022/09/22 20:36:54;;;;;;;0.88;0.88;;;;;;;8.93;100.00;98907.56;15296080;19;20931;-79
2022/09/22 20:42:19;;;;;;;1.42;0.90;;;;;;;8.89;100.00;98907.97;15282744;19;20037;-77
2022/09/22 20:47:47;;;;;;;1.13;0.80;;;;;;;8.84;100.00;98903.03;15304024;19;20007;-79
2022/09/22 20:53:11;;;;;;;1.38;0.88;;;;;;;8.76;100.00;98898.34;15295268;19;20486;-78
2022/09/22 20:58:36;;;;;;;1.05;0.93;;;;;;;8.72;100.00;98893.38;15302019;19;20014;-78
2022/09/22 21:04:10;;;;;;;0.85;0.85;;;;;;;8.68;100.00;98903.56;15288198;19;20015;-78
2022/09/22 21:15:15;;;;;;;1.58;0.85;;;;;;;8.61;100.00;98908.63;15294741;19;20086;-77
2022/09/22 21:20:44;;;;;;;1.27;1.00;;;;;;;8.57;100.00;98901.81;15339103;19;20026;-78
2022/09/22 21:26:14;;;;;;;1.55;0.95;;;;;;;8.48;100.00;98903.47;15299053;19;20035;-79
2022/09/22 21:31:39;;;;;;;0.77;0.77;;;;;;;8.46;100.00;98907.25;15287416;19;20725;-78
2022/09/22 21:37:07;;;;;;;2.45;0.90;;;;;;;8.42;100.00;98898.63;15292406;19;20013;-78
2022/09/22 21:42:32;;;;;;;1.70;0.85;;;;;;;8.42;100.00;98903.13;15282846;19;20024;-78
2022/09/22 21:47:58;;;;;;;0.82;0.63;;;;;;;8.26;100.00;98900.94;15281711;19;20537;-78
2022/09/22 21:59:33;;;;;;;1.42;1.02;;;;;;;7.91;100.00;98896.81;15282800;19;20018;-78
2022/09/22 22:05:04;;;;;;;1.20;1.00;;;;;;;7.78;100.00;98895.19;15283174;19;20025;-79
2022/09/22 22:10:31;;;;;;;1.92;0.90;;;;;;;7.69;100.00;98891.50;15293094;19;20021;-79
2022/09/22 22:16:06;;;;;;;1.20;1.10;;;;;;;7.64;100.00;98885.66;15285406;19;20007;-80
2022/09/22 22:21:32;;;;;;;3.45;1.02;;;;;;;7.64;100.00;98882.97;15290392;19;20017;-78
2022/09/22 22:27:00;;;;;;;0.93;0.90;;;;;;;7.64;100.00;98877.63;15291097;19;20014;-78
2022/09/22 22:32:27;;;;;;;1.52;1.13;;;;;;;7.69;100.00;98875.41;15289979;19;20035;-78
2022/09/22 22:37:52;;;;;;;1.17;1.00;;;;;;;7.72;100.00;98876.97;15287401;19;20011;-81
2022/09/22 22:43:17;;;;;;;1.23;1.00;;;;;;;7.75;100.00;98879.41;15292215;19;20014;-78
2022/09/22 22:48:47;;;;;;;2.70;0.98;;;;;;;7.76;100.00;98880.22;15293266;19;20018;-79
2022/09/22 22:54:13;;;;;;;2.17;1.05;;;;;;;7.72;100.00;98875.13;15285214;19;20006;-78
2022/09/22 22:59:38;;;;;;;2.70;0.80;;;;;;;7.72;100.00;98875.13;15313805;19;20025;-78
2022/09/22 23:05:12;;;;;;;1.42;0.90;;;;;;;7.72;100.00;98869.75;15313233;19;20011;-79
2022/09/22 23:10:37;;;;;;;1.38;0.90;;;;;;;7.69;100.00;98862.00;15316378;19;20035;-79
2022/09/22 23:16:09;;;;;;;1.10;1.00;;;;;;;7.69;100.00;98859.31;15301521;19;20018;-79
2022/09/22 23:21:39;;;;;;;1.67;1.15;;;;;;;7.69;100.00;98855.75;15307663;19;20371;-79
2022/09/22 23:27:03;;;;;;;0.90;0.90;;;;;;;7.66;100.00;98848.84;15306398;19;20045;-79
2022/09/22 23:32:27;;;;;;;1.30;0.98;;;;;;;7.66;100.00;98843.47;15302346;19;20370;-78
2022/09/22 23:37:55;;;;;;;2.00;0.90;;;;;;;7.67;100.00;98844.31;15305989;19;20013;-78
2022/09/22 23:43:21;;;;;;;2.50;0.95;;;;;;;7.60;100.00;98838.63;15304539;19;20017;-77
2022/09/22 23:48:46;;;;;;;1.23;0.93;;;;;;;7.61;100.00;98834.13;15305801;19;20024;-78
2022/09/22 23:54:15;;;;;;;3.72;0.98;;;;;;;7.65;100.00;98825.69;15303367;19;20089;-78
2022/09/22 23:59:39;;;;;;;1.50;0.80;;;;;;;7.68;100.00;98825.44;15304656;19;20017;-77
